createdAt,value
2023-03-14T01:44:01.941Z,11.12
2023-03-14T01:47:30.923Z,10.91
2023-03-14T01:50:37.617Z,12.64
2023-03-14T01:56:47.562Z,12.53
2023-03-14T01:59:46.529Z,12.28
2023-03-14T02:03:01.739Z,12.08
2023-03-14T02:05:42.990Z,11.33
2023-03-14T02:08:35.490Z,12.46
2023-03-14T02:11:10.371Z,12.07
2023-03-14T02:13:54.006Z,12.50
2023-03-14T02:16:39.871Z,12.59
2023-03-14T02:20:22.991Z,12.59
2023-03-14T02:22:59.209Z,12.49
2023-03-14T02:25:40.033Z,12.51
2023-03-14T02:28:13.351Z,12.37
2023-03-14T02:30:44.068Z,12.47
2023-03-14T02:33:19.549Z,12.38
2023-03-14T02:35:54.857Z,12.25
2023-03-14T02:38:30.318Z,12.66
2023-03-14T02:41:00.090Z,12.72
2023-03-14T02:43:33.782Z,12.50
2023-03-14T02:46:08.795Z,12.72
2023-03-14T02:48:43.413Z,12.78
2023-03-14T02:51:15.311Z,12.41
2023-03-14T02:53:45.657Z,12.75
2023-03-14T02:56:16.917Z,12.25
2023-03-14T02:58:49.884Z,12.24
2023-03-14T03:01:34.263Z,12.32
2023-03-14T03:04:04.592Z,12.16
2023-03-14T03:06:34.796Z,12.35
2023-03-14T03:09:05.241Z,12.63
2023-03-14T03:11:35.541Z,12.52
2023-03-14T03:14:11.250Z,12.27
2023-03-14T03:16:41.127Z,11.85
2023-03-14T03:19:11.370Z,11.35
2023-03-14T03:21:41.014Z,11.57
2023-03-14T03:24:10.704Z,11.46
2023-03-14T03:26:40.689Z,11.32
2023-03-14T03:29:15.439Z,11.58
2023-03-14T03:31:46.534Z,10.98
2023-03-14T03:34:17.165Z,10.36
2023-03-14T03:36:47.728Z,10.65
2023-03-14T03:39:17.898Z,10.79
2023-03-14T03:41:50.639Z,10.81
2023-03-14T03:44:23.352Z,10.90
2023-03-14T03:46:54.704Z,10.96
2023-03-14T03:49:24.757Z,10.76
2023-03-14T03:51:54.719Z,10.64
2023-03-14T03:54:24.456Z,10.69
2023-03-14T03:56:54.395Z,10.72
2023-03-14T03:59:27.075Z,10.62
2023-03-14T04:01:56.936Z,10.61
2023-03-14T04:04:27.316Z,10.29
2023-03-14T04:06:57.066Z,10.56
2023-03-14T04:09:27.250Z,10.30
2023-03-14T04:12:14.419Z,10.65
2023-03-14T04:15:00.340Z,10.32
2023-03-14T04:17:29.995Z,10.64
2023-03-14T04:19:59.680Z,10.67
2023-03-14T04:22:37.142Z,10.43
2023-03-14T04:25:07.845Z,10.56
2023-03-14T04:27:43.146Z,10.52
2023-03-14T04:30:24.046Z,10.30
2023-03-14T04:33:00.915Z,10.16
2023-03-14T04:35:34.710Z,10.55
2023-03-14T04:38:10.216Z,10.14
2023-03-14T04:40:40.879Z,10.43
2023-03-14T04:43:11.868Z,10.48
2023-03-14T04:45:50.416Z,10.48
2023-03-14T04:48:21.277Z,10.29
2023-03-14T04:50:51.806Z,10.44
2023-03-14T04:53:22.750Z,10.37
2023-03-14T04:55:56.254Z,10.29
2023-03-14T04:58:28.132Z,10.30
2023-03-14T05:01:05.729Z,10.35
2023-03-14T05:03:53.726Z,10.30
2023-03-14T05:06:51.580Z,10.27
2023-03-14T05:09:44.271Z,10.25
2023-03-14T05:12:32.463Z,10.14
2023-03-14T05:15:13.007Z,10.20
2023-03-14T05:18:03.802Z,9.97
2023-03-14T05:20:44.947Z,9.51
2023-03-14T05:23:49.598Z,10.13
2023-03-14T05:26:33.667Z,9.95
2023-03-14T05:29:22.487Z,9.86
2023-03-14T05:32:10.953Z,10.12
2023-03-14T05:35:01.908Z,10.06
2023-03-14T05:37:42.761Z,9.88
2023-03-14T05:40:48.625Z,10.15
2023-03-14T05:43:41.130Z,10.02
2023-03-14T05:46:18.988Z,10.21
2023-03-14T05:49:06.081Z,10.21
2023-03-14T05:51:53.845Z,10.12
2023-03-14T05:54:42.395Z,10.25
2023-03-14T05:57:30.582Z,10.27
2023-03-14T06:00:20.382Z,10.24
2023-03-14T06:03:00.294Z,9.92
2023-03-14T06:05:35.383Z,10.24
2023-03-14T06:08:08.966Z,10.07
2023-03-14T06:10:39.284Z,10.46
2023-03-14T06:13:08.952Z,9.42
2023-03-14T06:15:39.105Z,10.45
2023-03-14T06:18:09.175Z,10.59
2023-03-14T06:20:40.653Z,10.31
2023-03-14T06:23:15.605Z,10.35
2023-03-14T06:25:45.545Z,10.13
2023-03-14T06:28:15.372Z,10.63
2023-03-14T06:30:45.544Z,10.57
2023-03-14T06:33:17.934Z,10.60
2023-03-14T06:35:48.447Z,10.47
2023-03-14T06:38:21.980Z,10.77
2023-03-14T06:40:55.801Z,10.16
2023-03-14T06:43:37.939Z,10.61
2023-03-14T06:46:10.515Z,10.22
2023-03-14T06:48:43.557Z,10.46
2023-03-14T06:56:04.296Z,10.33
2023-03-14T07:03:04.515Z,10.82
2023-03-14T07:05:49.984Z,10.57
2023-03-14T07:09:19.154Z,9.79
2023-03-14T07:21:24.302Z,10.58
2023-03-14T07:24:17.765Z,10.30
2023-03-14T07:35:32.851Z,9.99
2023-03-14T07:39:13.345Z,10.51
2023-03-14T07:51:06.637Z,10.78
2023-03-14T08:02:06.827Z,9.62
2023-03-14T08:05:09.753Z,10.25
2023-03-14T08:08:56.915Z,9.52
2023-03-14T08:11:51.692Z,10.02
2023-03-14T08:14:56.029Z,9.78
2023-03-14T08:18:01.003Z,9.38
2023-03-14T08:20:56.495Z,9.68
2023-03-14T08:23:42.942Z,9.48
2023-03-14T08:26:50.874Z,9.90
2023-03-14T08:29:25.212Z,10.35
2023-03-14T08:32:19.920Z,9.99
2023-03-14T08:34:54.720Z,10.93
2023-03-14T08:37:33.582Z,10.85
2023-03-14T08:40:15.495Z,10.98
2023-03-14T08:42:50.899Z,10.12
2023-03-14T08:45:21.385Z,10.95
2023-03-14T08:47:54.302Z,10.40
2023-03-14T08:50:29.536Z,9.82
2023-03-14T08:53:07.038Z,10.11
2023-03-14T08:55:41.635Z,9.07
2023-03-14T08:58:11.849Z,10.56
2023-03-14T09:00:45.080Z,10.11
2023-03-14T09:03:15.589Z,10.59
2023-03-14T09:05:48.117Z,11.03
2023-03-14T09:08:18.004Z,10.84
2023-03-14T09:10:47.808Z,10.77
2023-03-14T09:13:17.498Z,11.18
2023-03-14T09:15:47.205Z,11.39
2023-03-14T09:18:17.207Z,10.93
2023-03-14T09:20:49.446Z,11.36
2023-03-14T09:23:19.433Z,11.46
2023-03-14T09:25:49.114Z,11.49
2023-03-14T09:28:19.086Z,11.27
2023-03-14T09:30:49.304Z,11.65
2023-03-14T09:33:19.315Z,11.17
2023-03-14T09:35:53.046Z,11.75
2023-03-14T09:38:24.493Z,11.58
2023-03-14T09:40:59.737Z,10.30
2023-03-14T09:43:38.152Z,10.01
2023-03-14T09:46:18.667Z,10.59
2023-03-14T09:49:18.799Z,11.89
2023-03-14T09:51:53.778Z,11.80
2023-03-14T09:54:35.076Z,11.43
2023-03-14T09:57:05.701Z,11.73
2023-03-14T09:59:37.488Z,11.74
2023-03-14T10:02:18.058Z,11.58
2023-03-14T10:04:50.127Z,11.52
2023-03-14T10:07:25.644Z,11.32
2023-03-14T10:09:55.640Z,11.26
2023-03-14T10:12:34.646Z,11.55
2023-03-14T10:15:07.880Z,11.69
2023-03-14T10:17:43.936Z,11.88
2023-03-14T10:20:42.794Z,11.74
2023-03-14T10:23:28.564Z,11.82
2023-03-14T10:26:10.707Z,11.96
2023-03-14T10:28:43.730Z,11.93
2023-03-14T10:31:13.762Z,12.13
2023-03-14T10:33:43.472Z,12.04
2023-03-14T10:36:23.487Z,11.90
2023-03-14T10:39:02.123Z,11.92
2023-03-14T10:41:51.813Z,12.29
2023-03-14T10:53:21.099Z,11.44
2023-03-14T11:17:55.246Z,7.59
2023-03-14T14:35:04.067Z,5.17
2023-03-14T14:59:13.230Z,6.76
2023-03-14T15:01:57.066Z,7.40
2023-03-14T15:04:29.836Z,6.76
2023-03-14T15:06:59.754Z,7.17
2023-03-14T15:09:29.520Z,7.66
2023-03-14T15:11:59.127Z,7.65
2023-03-14T15:14:31.375Z,7.94
2023-03-14T15:17:01.126Z,7.62
2023-03-14T15:19:33.560Z,7.60
2023-03-14T15:22:03.222Z,7.58
2023-03-14T15:24:32.954Z,7.67
2023-03-14T15:27:02.723Z,7.67
2023-03-14T15:29:39.690Z,7.71
2023-03-14T15:32:14.922Z,7.31
2023-03-14T15:34:45.061Z,7.01
2023-03-14T15:37:18.334Z,7.49
2023-03-14T15:40:41.709Z,6.42
2023-03-14T15:52:05.105Z,7.15
2023-03-14T19:55:49.926Z,5.15
2023-03-14T20:02:09.266Z,3.59
2023-03-14T20:05:08.433Z,4.73
2023-03-14T20:08:31.915Z,5.43
2023-03-14T20:11:16.449Z,5.68
2023-03-14T20:13:47.517Z,5.38
2023-03-14T20:16:17.737Z,5.13
2023-03-14T20:18:47.637Z,5.30
2023-03-14T20:21:22.119Z,5.01
2023-03-14T20:23:57.502Z,5.24
2023-03-14T20:26:28.752Z,5.61
2023-03-14T20:28:59.198Z,5.17
2023-03-14T20:31:30.319Z,5.56
2023-03-14T20:34:01.658Z,5.12
2023-03-14T20:36:32.016Z,5.13
2023-03-14T20:39:05.638Z,5.51
2023-03-14T20:41:42.135Z,5.08
2023-03-14T20:44:13.818Z,5.02
2023-03-14T20:46:44.265Z,5.45
2023-03-14T20:49:14.858Z,4.96
2023-03-14T20:51:44.778Z,4.96
2023-03-14T20:54:18.140Z,4.46
2023-03-14T20:56:48.689Z,4.88
2023-03-14T20:59:18.699Z,4.79
2023-03-14T21:01:50.515Z,5.29
2023-03-14T21:04:21.570Z,4.93
2023-03-14T21:06:55.315Z,4.74
2023-03-14T21:09:29.297Z,4.87
2023-03-14T21:11:59.436Z,4.78
2023-03-14T21:14:29.804Z,4.73
2023-03-14T21:17:00.726Z,4.77
2023-03-14T21:19:34.410Z,4.71
2023-03-14T21:22:09.080Z,4.66
2023-03-14T21:24:42.184Z,5.11
2023-03-14T21:27:13.085Z,4.82
2023-03-14T21:29:43.673Z,4.94
2023-03-14T21:32:13.483Z,5.00
2023-03-14T21:34:43.223Z,4.89
2023-03-14T21:37:12.860Z,5.03
2023-03-14T21:39:45.198Z,4.99
2023-03-14T21:42:14.869Z,4.85
2023-03-14T21:44:48.611Z,4.75
2023-03-14T21:47:19.617Z,4.92
2023-03-14T21:49:50.279Z,4.90
2023-03-14T21:52:20.336Z,4.79
2023-03-14T21:54:54.519Z,4.45
2023-03-14T21:57:30.286Z,4.57
2023-03-14T22:00:00.505Z,4.14
2023-03-14T22:02:31.102Z,4.15
2023-03-14T22:05:02.329Z,4.57
2023-03-14T22:07:32.613Z,4.53
2023-03-14T22:10:08.479Z,4.57
2023-03-14T22:12:38.748Z,3.93
2023-03-14T22:15:10.543Z,4.50
2023-03-14T22:17:41.502Z,4.31
2023-03-14T22:20:13.948Z,4.58
2023-03-14T22:22:43.839Z,4.62
2023-03-14T22:25:16.219Z,4.23
2023-03-14T22:27:45.884Z,4.55
2023-03-14T22:30:16.241Z,4.57
2023-03-14T22:32:45.920Z,4.65
2023-03-14T22:35:15.559Z,4.52
2023-03-14T22:37:45.194Z,4.37
2023-03-14T22:40:17.816Z,4.43
2023-03-14T22:42:48.401Z,4.58
2023-03-14T22:45:18.196Z,4.56
2023-03-14T22:47:47.911Z,4.27
2023-03-14T22:50:17.804Z,4.17
2023-03-14T22:52:47.432Z,4.28
2023-03-14T22:55:19.933Z,4.04
2023-03-14T22:57:49.707Z,4.18
2023-03-14T23:00:19.924Z,4.05
2023-03-14T23:02:49.906Z,4.16
2023-03-14T23:05:19.820Z,4.35
2023-03-14T23:07:49.481Z,4.26
2023-03-14T23:10:22.751Z,4.33
2023-03-14T23:12:54.323Z,4.07
2023-03-14T23:15:24.283Z,4.12
2023-03-14T23:17:54.123Z,4.13
2023-03-14T23:20:23.802Z,4.02
2023-03-14T23:22:53.617Z,4.13
2023-03-14T23:25:25.876Z,3.94
2023-03-14T23:27:55.562Z,3.87
2023-03-14T23:30:25.356Z,3.70
2023-03-14T23:32:55.063Z,3.70
2023-03-14T23:35:24.950Z,3.92
2023-03-14T23:37:54.571Z,3.83
2023-03-14T23:40:26.873Z,3.73
2023-03-14T23:42:56.541Z,3.66
2023-03-14T23:45:26.482Z,3.49
2023-03-14T23:47:57.832Z,3.28
2023-03-14T23:50:27.628Z,3.77
2023-03-14T23:52:57.322Z,3.71
2023-03-14T23:55:29.505Z,3.62
2023-03-14T23:57:59.192Z,3.70
